Latest Weather Observations for Double Island Point

IDQ60801

Issued at 8:32 pm EST Sunday 23 July 2017 (issued every 30 minutes, with the page automatically refreshed every 10 minutes)

About weather observations | Map of weather stations | Latest weather observations for QLD | Other Formats
Station Details ID: 040068 Name: DOUBLE ISLAND POINT LIGHTHOUSE Lat: -25.93 Lon: 153.19 Height: 95.64 m
Data from the previous 72 hours. | See also: Recent months at Double Island Point
Date/Time
EST
Temp
°C
App
Temp
°C
Dew
Point
°C
Rel
Hum
%
Delta-T
°C
Wind Press
QNH
hPa
Press
MSL
hPa
Rain since
9am
mm
Dir  Spd
km/h
Gust
km/h
Spd
kts
Gust
kts
23/08:30pm 18.1 17.9 13.6 75 2.6 N 7 9 4 5 1020.1 1020.0 0.0
23/08:00pm 18.2 18.5 13.5 74 2.7 N 4 9 2 5 1020.0 1019.9 0.0
23/07:30pm 18.1 17.8 13.2 73 2.8 N 7 11 4 6 1019.8 1019.7 0.0
23/07:00pm 18.4 18.3 13.3 72 2.9 NE 6 11 3 6 1019.6 1019.5 0.0
23/06:30pm 18.5 17.8 13.1 71 3.1 NNE 9 15 5 8 1019.2 1019.0 0.0
23/06:00pm 18.5 16.2 12.9 70 3.2 NNE 17 20 9 11 1018.9 1018.7 0.0
23/05:30pm 18.7 17.0 12.5 67 3.5 NNE 13 17 7 9 1018.5 1018.3 0.0
23/05:00pm 19.7 18.2 12.0 61 4.3 NE 11 19 6 10 1018.3 1018.1 0.0
23/04:30pm 20.2 18.5 12.4 61 4.4 ENE 13 17 7 9 1018.2 1018.0 0.0
23/04:00pm 20.2 18.7 11.9 59 4.6 ENE 11 15 6 8 1018.2 1018.0 0.0
23/03:30pm 20.9 19.5 12.3 58 4.9 ENE 11 15 6 8 1018.1 1017.9 0.0
23/03:00pm 20.7 19.1 11.6 56 5.1 ENE 11 15 6 8 1018.2 1018.0 0.0
23/02:30pm 20.8 19.5 11.2 54 5.3 NE 9 13 5 7 1018.3 1018.1 0.0
23/02:00pm 20.8 19.5 11.2 54 5.3 ENE 9 13 5 7 1018.5 1018.3 0.0
23/01:30pm 20.9 19.5 12.3 58 4.9 E 11 15 6 8 1018.9 1018.7 0.0
23/01:00pm 21.4 20.4 12.3 56 5.1 E 9 13 5 7 1019.2 1019.0 0.0
23/12:30pm 20.4 19.0 12.1 59 4.7 ESE 11 13 6 7 1019.8 1019.7 0.0
23/12:00pm 20.0 17.9 12.5 62 4.2 SSE 15 17 8 9 1020.4 1020.3 0.0
23/11:30am 19.7 17.6 12.5 63 4.1 SSE 15 19 8 10 1021.1 1021.0 0.0
23/11:00am 19.6 17.5 11.1 58 4.6 S 13 19 7 10 1021.7 1021.6 0.0
23/10:30am 19.2 16.8 11.5 61 4.2 S 15 20 8 11 1022.1 1022.0 0.0
23/10:00am 19.0 17.2 12.0 64 3.9 SSW 13 17 7 9 1022.3 1022.2 0.0
23/09:30am 18.1 15.5 11.9 67 3.4 SSW 17 20 9 11 1022.5 1022.4 0.0
23/09:00am 18.0 15.5 12.2 69 3.2 SSW 17 20 9 11 1022.3 1022.2 0.0
23/08:30am 17.5 14.6 12.2 71 2.9 S 19 24 10 13 1022.0 1021.9 0.0
23/08:00am 17.5 14.8 13.0 75 2.5 SSW 19 24 10 13 1021.8 1021.7 0.0
23/07:30am 16.7 14.0 13.0 79 2.1 SSW 19 22 10 12 1021.6 1021.5 0.0
23/07:00am 16.3 13.7 13.2 82 1.7 SSW 19 20 10 11 1021.3 1021.2 0.0
23/06:30am 16.2 13.6 13.3 83 1.6 SSW 19 20 10 11 1021.0 1020.9 0.0
23/06:00am 16.0 13.2 13.1 83 1.6 SSW 20 22 11 12 1020.8 1020.7 0.0
23/05:30am 15.9 13.3 13.2 84 1.5 SSW 19 22 10 12 1020.6 1020.5 0.0
23/05:00am 15.9 13.2 13.6 86 1.3 SSW 20 22 11 12 1020.4 1020.3 0.0
23/04:30am 16.1 13.5 13.8 86 1.3 SSW 20 22 11 12 1020.3 1020.2 0.0
23/04:00am 16.0 13.6 13.7 86 1.3 SSW 19 22 10 12 1020.4 1020.3 0.0
23/03:30am 16.2 13.5 13.5 84 1.5 SSW 20 22 11 12 1020.4 1020.3 0.0
23/03:00am 16.2 13.8 13.7 85 1.4 SSW 19 24 10 13 1020.4 1020.3 0.0
23/02:30am 15.9 13.4 14.1 89 1.0 SSW 20 24 11 13 1020.5 1020.4 0.0
23/02:00am 16.2 13.7 14.2 88 1.1 SSW 20 24 11 13 1020.6 1020.5 0.0
23/01:30am 16.4 13.9 14.1 86 1.3 SSW 20 22 11 12 1021.0 1020.9 0.0
23/01:00am 16.8 14.2 13.3 80 2.0 S 19 20 10 11 1021.1 1021.0 0.0
23/12:30am 16.9 14.4 13.4 80 2.0 S 19 20 10 11 1021.2 1021.1 0.0
23/12:00am 16.9 14.7 13.2 79 2.1 S 17 20 9 11 1021.3 1021.2 0.0
 
Date/Time
EST
Temp
°C
App
Temp
°C
Dew
Point
°C
Rel
Hum
%
Delta-T
°C
Wind Press
QNH
hPa
Press
MSL
hPa
Rain since
9am
mm
Dir  Spd
km/h
Gust
km/h
Spd
kts
Gust
kts
22/11:30pm 17.2 15.3 13.1 77 2.3 S 15 19 8 10 1021.6 1021.5 0.0
22/11:00pm 17.5 15.2 11.8 69 3.1 SSE 15 17 8 9 1021.8 1021.7 0.0
22/10:30pm 17.5 15.3 12.2 71 2.9 SE 15 20 8 11 1021.9 1021.8 0.0
22/10:00pm 17.5 15.1 12.8 74 2.6 SSE 17 20 9 11 1021.9 1021.8 0.0
22/09:30pm 17.4 15.1 12.9 75 2.5 SSE 17 20 9 11 1021.9 1021.8 0.0
22/09:00pm 17.3 14.5 12.6 74 2.6 SSE 19 20 10 11 1021.8 1021.7 0.0
22/08:30pm 17.6 14.8 12.7 73 2.7 SSE 19 22 10 12 1021.7 1021.6 0.0
22/08:00pm 17.4 14.5 12.9 75 2.5 SSE 20 24 11 13 1021.7 1021.6 0.0
22/07:30pm 17.4 14.3 13.5 78 2.2 SSE 22 26 12 14 1021.4 1021.3 0.0
22/07:00pm 17.3 13.6 12.8 75 2.5 SE 24 28 13 15 1021.1 1021.0 0.0
22/06:30pm 17.2 13.5 12.7 75 2.5 SSE 24 28 13 15 1020.9 1020.8 0.0
22/06:00pm 17.2 13.5 12.7 75 2.5 SSE 24 30 13 16 1020.6 1020.5 0.0
22/05:30pm 17.2 13.1 12.7 75 2.5 SE 26 30 14 16 1020.4 1020.3 0.0
22/05:00pm 17.2 13.4 12.5 74 2.6 SSE 24 30 13 16 1020.4 1020.3 0.0
22/04:30pm 17.2 13.2 11.9 71 2.9 SSE 24 30 13 16 1020.5 1020.4 0.0
22/04:00pm 17.4 13.1 11.9 70 3.0 SSE 26 32 14 17 1020.4 1020.3 0.0
22/03:30pm 17.6 13.4 12.3 71 2.9 SSE 26 32 14 17 1020.4 1020.3 0.0
22/03:00pm 17.8 13.4 11.8 68 3.3 SSE 26 33 14 18 1020.3 1020.2 0.0
22/02:30pm 17.6 12.7 11.4 67 3.4 SSE 28 33 15 18 1020.3 1020.2 0.0
22/02:00pm 17.7 13.6 11.3 66 3.5 S 24 33 13 18 1020.5 1020.4 0.0
22/01:30pm 17.8 13.3 11.4 66 3.5 S 26 32 14 17 1020.8 1020.7 0.0
22/01:00pm 17.7 12.6 10.6 63 3.8 S 28 35 15 19 1021.0 1020.9 0.0
22/12:30pm 17.9 12.9 10.8 63 3.8 S 28 37 15 20 1021.4 1021.3 0.0
22/12:00pm 17.7 12.2 10.6 63 3.8 S 30 35 16 19 1021.9 1021.8 0.0
22/11:30am 17.9 12.4 10.5 62 4.0 S 30 39 16 21 1022.3 1022.2 0.0
22/11:00am 17.3 11.3 10.2 63 3.8 S 32 37 17 20 1022.7 1022.6 0.0
22/10:30am 16.9 11.2 9.8 63 3.7 S 30 39 16 21 1023.0 1022.9 0.0
22/10:00am 16.9 11.0 10.3 65 3.5 S 32 39 17 21 1023.1 1023.0 0.0
22/09:30am 16.6 10.7 10.5 67 3.3 S 32 39 17 21 1023.0 1022.9 0.0
22/09:00am 16.3 10.7 10.2 67 3.2 S 30 37 16 20 1023.1 1023.0 0.0
22/08:30am 16.0 10.7 9.9 67 3.2 SSW 28 35 15 19 1022.8 1022.7 0.0
22/08:00am 15.3 9.9 9.4 68 3.0 SSW 28 33 15 18 1022.4 1022.3 0.0
22/07:30am 14.6 9.2 9.4 71 2.7 SSW 28 33 15 18 1022.2 1022.1 0.0
22/07:00am 14.2 8.3 9.2 72 2.6 SSW 30 35 16 19 1021.9 1021.8 0.0
22/06:30am 14.0 8.9 9.2 73 2.5 SSW 26 32 14 17 1021.6 1021.5 0.0
22/06:00am 13.9 8.7 8.7 71 2.6 SSW 26 32 14 17 1021.2 1021.1 0.0
22/05:30am 13.8 8.5 8.4 70 2.7 SSW 26 32 14 17 1020.7 1020.6 0.0
22/05:00am 13.8 8.5 8.4 70 2.7 SSW 26 30 14 16 1020.3 1020.2 0.0
22/04:30am 14.0 9.3 9.2 73 2.5 SSW 24 32 13 17 1020.1 1020.0 0.0
22/04:00am 14.2 9.5 9.4 73 2.5 SSW 24 30 13 16 1020.2 1020.1 0.0
22/03:30am 14.4 9.8 9.6 73 2.5 SSW 24 32 13 17 1020.4 1020.3 0.0
22/03:00am 14.3 9.7 9.5 73 2.5 SSW 24 30 13 16 1020.6 1020.5 0.0
22/02:30am 14.9 10.9 10.3 74 2.4 SSW 22 28 12 15 1020.5 1020.4 0.0
22/02:00am 15.6 10.3 9.7 68 3.1 S 28 35 15 19 1020.4 1020.3 0.0
22/01:30am 16.4 9.9 6.5 52 4.9 SSE 30 37 16 20 1020.5 1020.4 0.0
22/01:00am 16.5 10.6 7.7 56 4.4 SSE 28 33 15 18 1020.7 1020.6 0.0
22/12:30am 16.6 10.4 7.8 56 4.5 SSE 30 37 16 20 1020.9 1020.8 0.0
22/12:00am 16.6 10.7 7.3 54 4.6 SSE 28 32 15 17 1020.9 1020.8 0.0
 
Date/Time
EST
Temp
°C
App
Temp
°C
Dew
Point
°C
Rel
Hum
%
Delta-T
°C
Wind Press
QNH
hPa
Press
MSL
hPa
Rain since
9am
mm
Dir  Spd
km/h
Gust
km/h
Spd
kts
Gust
kts
21/11:30pm 16.7 10.4 7.6 55 4.6 SSE 30 37 16 20 1021.0 1020.9 0.0
21/11:00pm 16.8 10.8 7.2 53 4.8 SSE 28 35 15 19 1021.1 1021.0 0.0
21/10:30pm 16.8 10.8 6.9 52 4.9 SSE 28 33 15 18 1021.1 1021.0 0.0
21/10:00pm 16.9 10.6 7.3 53 4.8 SSE 30 35 16 19 1021.1 1021.0 0.0
21/09:30pm 16.9 11.2 6.7 51 5.1 SSE 26 33 14 18 1020.9 1020.8 0.0
21/09:00pm 16.9 11.0 7.3 53 4.8 SSE 28 33 15 18 1020.6 1020.5 0.0
21/08:30pm 17.1 10.9 6.3 49 5.3 SSE 28 33 15 18 1020.3 1020.2 0.0
21/08:00pm 16.9 11.3 7.0 52 4.9 SSE 26 32 14 17 1020.1 1020.0 0.0
21/07:30pm 16.7 10.8 7.4 54 4.7 SSE 28 32 15 17 1019.8 1019.7 0.0
21/07:00pm 16.5 10.8 6.6 52 4.9 SSE 26 30 14 16 1019.3 1019.2 0.0
21/06:30pm 16.9 11.7 8.8 59 4.2 SE 26 30 14 16 1018.8 1018.6 0.0
21/06:00pm 16.6 11.3 7.0 53 4.8 SSE 24 28 13 15 1018.4 1018.2 0.0
21/05:30pm 16.4 12.0 7.3 55 4.6 SE 20 24 11 13 1017.8 1017.6 0.0
21/05:00pm 16.4 12.4 6.8 53 4.7 SE 17 20 9 11 1017.4 1017.2 0.0
21/04:30pm 16.6 12.2 6.4 51 5.0 SSE 19 22 10 12 1017.3 1017.1 0.0
21/04:00pm 16.6 12.1 5.9 49 5.2 SSE 19 22 10 12 1017.0 1016.8 0.0
21/03:30pm 16.8 11.5 5.1 46 5.6 SSE 22 26 12 14 1016.7 1016.5 0.0
21/03:00pm 16.9 10.8 4.6 44 5.8 SSE 26 32 14 17 1016.8 1016.6 0.0
21/02:30pm 17.2 10.9 3.5 40 6.4 SSE 26 30 14 16 1016.9 1016.7 0.0
21/02:00pm 17.2 11.1 2.8 38 6.6 SSE 24 30 13 16 1017.2 1017.0 0.0
21/01:30pm 17.1 11.4 3.1 39 6.5 SSE 22 28 12 15 1017.3 1017.1 0.0
21/01:00pm 17.0 11.3 3.0 39 6.4 SSE 22 26 12 14 1017.7 1017.5 0.0
21/12:30pm 17.1 11.6 1.9 36 6.8 S 20 24 11 13 1018.1 1017.9 0.0
21/12:00pm 17.0 11.7 1.8 36 6.8 S 19 26 10 14 1018.3 1018.1 0.0
21/11:30am 16.9 11.4 2.1 37 6.7 S 20 28 11 15 1018.8 1018.6 0.0
21/11:00am 16.8 11.4 1.3 35 6.9 S 19 26 10 14 1019.1 1018.9 0.0
21/10:30am 16.5 11.0 0.6 34 6.9 S 19 24 10 13 1019.1 1018.9 0.0
21/10:00am 16.2 11.4 0.3 34 6.8 S 15 20 8 11 1019.2 1019.0 0.0
21/09:30am 15.8 11.1 0.8 36 6.5 S 15 22 8 12 1018.9 1018.7 0.0
21/09:00am 15.3 11.3 0.7 37 6.3 SSW 11 15 6 8 1018.9 1018.7 0.0
21/08:30am 14.4 11.2 -0.5 36 6.2 SW 6 9 3 5 1018.6 1018.4 0.0
21/08:00am 13.2 9.2 0.6 42 5.3 SW 11 15 6 8 1018.1 1017.9 0.0
21/07:30am 12.6 7.8 0.4 43 5.1 WSW 15 19 8 10 1017.9 1017.7 0.0
21/07:00am 12.5 6.5 -1.4 38 5.6 SW 20 26 11 14 1017.7 1017.5 0.0
21/06:30am 11.8 6.2 0.0 44 4.9 SW 19 22 10 12 1017.3 1017.1 0.0
21/06:00am 12.1 6.8 1.7 49 4.4 SW 19 20 10 11 1017.1 1016.9 0.0
21/05:30am 11.6 7.8 3.9 59 3.5 WSW 13 19 7 10 1016.7 1016.5 0.0
21/05:00am 11.4 6.9 4.4 62 3.2 WSW 17 22 9 12 1016.7 1016.5 0.0
21/04:30am 11.5 7.1 4.7 63 3.1 W 17 20 9 11 1016.4 1016.2 0.0
21/04:00am 11.9 7.8 4.6 61 3.3 WNW 15 17 8 9 1016.2 1016.0 0.0
21/03:30am 12.0 8.7 4.5 60 3.4 WNW 11 15 6 8 1016.1 1015.9 0.0
21/03:00am 12.2 8.2 4.7 60 3.4 NW 15 20 8 11 1016.1 1015.9 0.0
21/02:30am 12.7 7.8 3.9 55 4.0 WNW 19 24 10 13 1015.9 1015.7 0.0
21/02:00am 12.7 7.6 3.9 55 4.0 WNW 20 26 11 14 1016.0 1015.8 0.0
21/01:30am 12.8 7.9 4.3 56 3.9 WNW 19 24 10 13 1016.1 1015.9 0.0
21/01:00am 13.4 8.2 3.5 51 4.5 W 20 26 11 14 1016.3 1016.1 0.0
21/12:30am 13.8 8.7 3.0 48 4.8 W 19 24 10 13 1016.4 1016.2 0.0
21/12:00am 14.3 9.2 3.2 47 5.0 W 19 24 10 13 1016.3 1016.1 0.0
 
Date/Time
EST
Temp
°C
App
Temp
°C
Dew
Point
°C
Rel
Hum
%
Delta-T
°C
Wind Press
QNH
hPa
Press
MSL
hPa
Rain since
9am
mm
Dir  Spd
km/h
Gust
km/h
Spd
kts
Gust
kts
20/11:30pm 14.8 9.4 2.4 43 5.5 W 20 26 11 14 1016.5 1016.3 0.0
20/11:00pm 14.8 10.3 2.0 42 5.7 W 15 20 8 11 1016.4 1016.2 0.0
20/10:30pm 15.2 10.6 1.7 40 6.0 WSW 15 19 8 10 1016.5 1016.3 0.0
20/10:00pm 15.3 11.1 1.4 39 6.1 WSW 13 17 7 9 1016.7 1016.5 0.0
20/09:30pm 15.7 10.7 1.4 38 6.3 SW 17 22 9 12 1016.8 1016.6 0.0
20/09:00pm 16.4 11.1 1.7 37 6.5 WSW 19 24 10 13 1016.6 1016.4 0.0

Other Formats:

Comma delimited format used in spreadsheet applications
http://www.bom.gov.au/fwo/IDQ60801/IDQ60801.94584.axf

JavaScript Object Notation format (JSON) in row-major order
http://www.bom.gov.au/fwo/IDQ60801/IDQ60801.94584.json